Tiempo atmosférico en la estación meteorológica de Villafáfila, Zamora (690 m.)



Fecha
DESCASC
Temp. máxima en grados centígrados (hora)
DESCASC
Temp. mínima en grados centígrados (hora)
DESCASC
Temp. media en grados centígrados
DESCASC
Racha de viento máxima en m/sg (hora)
DESCASC
Velocidad máxima media en intervalos de 10 minutos(hora)
DESCASC
Precipitaciones diarias en mm
DESCASC
Precipitaciones de 00:00 a 06:00 en mm
DESCASC
Precipitaciones de 06:00 a 12:00 en mm
DESCASC
Precipitaciones de 12:00 a 18:00 en mm
DESCASC
Precipitaciones de 18:00 a 24:00 en mm
DESCASC
08-08-2019 29.6 (18:00) 17.8 (00:00) 23.7 16.11 (19:50) 8.33 (19:00) 0.6 0 0.6 0 0
09-08-2019 26.1 (17:00) 16.9 (00:00) 21.5 14.72 (17:50) 9.72 (16:40) 0.4 0 0.4 0 0
10-08-2019 26.8 (18:30) 15 (00:00) 20.9 9.44 (21:00) 6.67 (21:10) 0 0 0 0 0
24-08-2019 34.3 (17:10) 13.8 (00:00) 24 9.17 (18:50) 5.28 (19:20) 0 0 0 0 0
23-08-2019 33.2 (17:50) 10.1 (00:00) 21.7 7.78 (16:00) 4.44 (06:20) 0 0 0 0 0
22-08-2019 31.8 (17:40) 12.2 (00:00) 22 12.5 (01:30) 8.61 (00:10) 0 0 0 0 0
21-08-2019 30.6 (17:40) 13.7 (00:00) 22.2 13.89 (23:50) 10 (23:10) 0 0 0 0 0
20-08-2019 26.4 (17:20) 11.5 (00:00) 18.9 14.72 (09:50) 9.17 (10:50) 0 0 0 0 0
19-08-2019 26.6 (16:30) 13.9 (00:00) 20.3 13.33 (22:10) 10 (23:10) 0 0 0 0 0
18-08-2019 28.5 (17:50) 15 (00:00) 21.8 11.94 (18:30) 7.5 (15:40) 0 0 0 0 0
17-08-2019 34 (17:00) 11.1 (00:00) 22.6 13.61 (16:40) 6.67 (19:20) 0 0 0 0 0
16-08-2019 34.2 (18:10) 13.8 (00:00) 24 9.72 (20:40) 6.39 (00:10) 0 0 0 0 0
15-08-2019 31.9 (18:20) 13.7 (00:00) 22.8 9.17 (23:50) 6.11 (23:30) 0 0 0 0 0
14-08-2019 32.6 (19:00) 10.6 (00:00) 21.6 8.33 (22:10) 6.39 (22:20) 0 0 0 0 0
13-08-2019 27.3 (18:10) 9 (00:00) 18.1 13.33 (01:00) 9.44 (01:00) 0 0 0 0 0
12-08-2019 24.1 (16:00) 7.4 (00:00) 15.8 13.89 (23:50) 8.33 (23:59) 0 0 0 0 0
11-08-2019 24.9 (17:00) 12.5 (00:00) 18.7 14.17 (20:20) 10.28 (20:30) 1.4 1.4 0 0 0
26-07-2019 27.6 (18:10) 15.2 (00:00) 21.4 10.83 (20:40) 7.78 (20:50) 0.6 0.6 0 0 0
07-08-2019 26.2 (14:50) 15.3 (00:00) 20.8 15 (15:00) 9.17 (17:40) 1.4 0 0 0 1.4
06-08-2019 31.7 (16:30) 14.5 (00:00) 23.1 11.67 (19:50) 7.78 (19:50) 0 0 0 0 0
05-08-2019 33.1 (18:20) 14.4 (00:00) 23.7 9.72 (15:10) 5 (20:20) 0 0 0 0 0
04-08-2019 33.3 (17:20) 15.1 (00:00) 24.2 10.56 (17:20) 6.11 (17:30) 0 0 0 0 0
03-08-2019 34.7 (18:20) 14.7 (00:00) 24.7 9.17 (20:20) 6.39 (20:20) 0 0 0 0 0
02-08-2019 32.8 (17:00) 12.1 (00:00) 22.4 10 (00:40) 6.94 (00:40) 0 0 0 0 0
01-08-2019 31.5 (18:50) 12.1 (00:00) 21.8 10 (23:30) 6.94 (23:40) 0 0 0 0 0
29-07-2019 26 (17:30) 12.7 (00:00) 19.3 13.89 (16:50) 8.33 (15:30) 0 0 0 0 0
31-07-2019 28.1 (17:40) 11.6 (00:00) 19.9 11.94 (00:10) 8.61 (00:10) 0 0 0 0 0
30-07-2019 26.5 (17:50) 9.6 (00:00) 18.1 11.67 (09:50) 7.5 (09:30) 0 0 0 0 0
28-07-2019 27.9 (19:50) 9.5 (00:00) 18.7 8.61 (18:20) 4.17 (00:30) 0 0 0 0 0
27-07-2019 24.4 (15:10) 14 (00:00) 19.2 9.72 (19:50) 6.94 (19:40) 0 0 0 0 0

Gráficas

Temp. máximas Temp. mínimas Temp. medias Precipitaciones Rachas de viento máximas Velocidades máximas media en intervalos de 10 minutos

Datos horarios

Fecha y hora oficial Temperatura (ºC) Velocidad del viento (km/h) Dirección del viento Racha (km/h) Dirección de racha Precipitación (mm) Presión (hPa) Tendencia (hPa) Humedad (%)
2019-08-24 23:00:00 22.6 9 Noroeste 12 Noroeste 0 -- -- 44
2019-08-24 22:00:00 24.6 9 Noroeste 15 Noroeste 0 -- -- 38
2019-08-24 21:00:00 29.2 13 Noroeste 21 Noroeste 0 -- -- 31
2019-08-24 20:00:00 33 13 Oeste 28 Oeste 0 -- -- 23
2019-08-24 19:00:00 33.8 14 Oeste 33 Oeste 0 -- -- 23
2019-08-24 18:00:00 34.2 10 Sudoeste 28 Oeste 0 -- -- 22
2019-08-24 17:00:00 33.9 11 Sur 27 Sur 0 -- -- 23
2019-08-24 16:00:00 32.2 13 Sur 27 Sudoeste 0 -- -- 25
2019-08-24 15:00:00 32.9 7 Sur 14 Sur 0 -- -- 25
2019-08-24 14:00:00 31.3 8 Sur 11 Sudeste 0 -- -- 26
2019-08-24 13:00:00 29.5 5 Norte 10 Este 0 -- -- 27
2019-08-24 12:00:00 26.5 3 Noroeste 11 Oeste 0 -- -- 33
2019-08-24 11:00:00 24 5 Nordeste 11 Norte 0 -- -- 38
2019-08-24 10:00:00 21 9 Norte 17 Norte 0 -- -- 45
2019-08-24 09:00:00 16.8 10 Noroeste 19 Noroeste 0 -- -- 65
2019-08-24 08:00:00 14.3 13 Noroeste 22 Noroeste 0 -- -- 74
2019-08-24 07:00:00 14.3 13 Norte 16 Norte 0 -- -- 70
2019-08-24 06:00:00 15.2 13 Norte 18 Norte 0 -- -- 65
2019-08-24 05:00:00 15.3 13 Norte 18 Norte 0 -- -- 57
2019-08-24 04:00:00 16.4 10 Norte 16 Norte 0 -- -- 48
2019-08-24 03:00:00 19.6 8 Noroeste 20 Este 0 -- -- 43
2019-08-24 02:00:00 20.9 17 Nordeste 26 Norte 0 -- -- 37
2019-08-24 01:00:00 18.4 0 Calma 12 Oeste 0 -- -- 39
2019-08-24 00:00:00 19.6 6 Oeste 11 Noroeste 0 -- -- 36
2019-08-23 23:00:00 21.5 4 Noroeste 8 Sudeste 0 -- -- 33
2019-08-23 22:00:00 23.6 8 Sudeste 17 Sudeste 0 -- -- 29
2019-08-23 21:00:00 28.7 9 Este 11 Este 0 -- -- 25
2019-08-23 20:00:00 31.8 7 Sur 13 Sur 0 -- -- 22
2019-08-23 19:00:00 32.4 10 Sur 22 Sudoeste 0 -- -- 21
2019-08-23 18:00:00 33 7 Sur 22 Noroeste 0 -- -- 20
2019-08-23 17:00:00 32.9 10 Norte 28 Oeste 0 -- -- 22
2019-08-23 16:00:00 32.6 15 Oeste 28 Oeste 0 -- -- 24
2019-08-23 15:00:00 32.2 6 Nordeste 16 Nordeste 0 -- -- 21
2019-08-23 14:00:00 30.8 5 Sudoeste 19 Este 0 -- -- 20
2019-08-23 13:00:00 29.4 9 Nordeste 18 Nordeste 0 -- -- 25
2019-08-23 12:00:00 25.4 8 Norte 16 Norte 0 -- -- 33
2019-08-23 11:00:00 21.8 9 Norte 15 Nordeste 0 -- -- 39
2019-08-23 10:00:00 17.7 8 Norte 14 Norte 0 -- -- 49
2019-08-23 09:00:00 13.4 7 Norte 18 Noroeste 0 -- -- 64
2019-08-23 08:00:00 10.1 14 Norte 18 Norte 0 -- -- 74
2019-08-23 07:00:00 10.9 15 Noroeste 20 Norte 0 -- -- 70
2019-08-23 06:00:00 10.8 14 Noroeste 18 Norte 0 -- -- 67
2019-08-23 05:00:00 11.7 12 Noroeste 16 Noroeste 0 -- -- 66
2019-08-23 04:00:00 12.2 11 Noroeste 15 Noroeste 0 -- -- 62
2019-08-23 03:00:00 14.2 12 Norte 17 Noroeste 0 -- -- 50
2019-08-23 02:00:00 15.2 11 Nordeste 15 Nordeste 0 -- -- 44
2019-08-23 01:00:00 16.1 14 Nordeste 17 Nordeste 0 -- -- 37
2019-08-23 00:00:00 16.1 7 Norte 16 Nordeste 0 -- -- 30
2019-08-22 23:00:00 18 4 Nordeste 11 Nordeste 0 -- -- 27
2019-08-22 22:00:00 21.6 9 Nordeste 12 Nordeste 0 -- -- 22
2019-08-22 21:00:00 27.4 7 Norte 15 Norte 0 -- -- 19
2019-08-22 20:00:00 30.5 8 Nordeste 18 Nordeste 0 -- -- 16
2019-08-22 19:00:00 31.3 6 Nordeste 22 Noroeste 0 -- -- 17
2019-08-22 18:00:00 31.5 3 Nordeste 20 Nordeste 0 -- -- 19
2019-08-22 17:00:00 31.6 4 Este 25 Nordeste 0 -- -- 19
2019-08-22 16:00:00 30.6 7 Oeste 25 Nordeste 0 -- -- 21
2019-08-22 15:00:00 30.6 11 Nordeste 35 Nordeste 0 -- -- 21
2019-08-22 14:00:00 29.2 13 Nordeste 24 Nordeste 0 -- -- 22
2019-08-22 13:00:00 27.1 13 Nordeste 24 Nordeste 0 -- -- 29
2019-08-22 12:00:00 24.8 12 Nordeste 26 Nordeste 0 -- -- 33
2019-08-22 11:00:00 21.8 14 Nordeste 24 Nordeste 0 -- -- 41
2019-08-22 10:00:00 18.9 15 Nordeste 25 Nordeste 0 -- -- 49
2019-08-22 09:00:00 15.3 13 Norte 19 Norte 0 -- -- 65
2019-08-22 08:00:00 12.4 13 Norte 16 Norte 0 -- -- 81
2019-08-22 07:00:00 12.9 12 Norte 23 Norte 0 -- -- 79
2019-08-22 06:00:00 13.6 14 Norte 17 Norte 0 -- -- 80
2019-08-22 05:00:00 14.5 13 Norte 24 Norte 0 -- -- 78
2019-08-22 04:00:00 16.1 15 Norte 33 Norte 0 -- -- 74
2019-08-22 03:00:00 16.6 14 Noroeste 36 Nordeste 0 -- -- 74
2019-08-22 02:00:00 17.6 25 Nordeste 45 Nordeste 0 -- -- 70
2019-08-22 01:00:00 18.6 29 Nordeste 44 Este 0 -- -- 65
2019-08-22 00:00:00 20.4 35 Nordeste 50 Nordeste 0 -- -- 61
2019-08-21 23:00:00 22.1 32 Nordeste 46 Este 0 -- -- 53
2019-08-21 22:00:00 23 13 Nordeste 16 Nordeste 0 -- -- 38
2019-08-21 21:00:00 27.6 5 Norte 9 Norte 0 -- -- 34
2019-08-21 20:00:00 29.6 4 Sudoeste 22 Oeste 0 -- -- 30
2019-08-21 19:00:00 30.5 9 Noroeste 18 Noroeste 0 -- -- 30
2019-08-21 18:00:00 30.1 8 Noroeste 27 Noroeste 0 -- -- 31
2019-08-21 17:00:00 30.1 6 Oeste 14 Sur 0 -- -- 34
2019-08-21 16:00:00 28.9 5 Sur 16 Norte 0 -- -- 38
2019-08-21 15:00:00 27.5 6 Este 22 Este 0 -- -- 43
2019-08-21 14:00:00 25.9 6 Este 22 Nordeste 0 -- -- 46
2019-08-21 13:00:00 24.7 13 Norte 23 Norte 0 -- -- 46
2019-08-21 12:00:00 22.5 14 Norte 25 Norte 0 -- -- 50
2019-08-21 11:00:00 19.2 16 Nordeste 26 Nordeste 0 -- -- 58
2019-08-21 10:00:00 16.9 19 Nordeste 27 Norte 0 -- -- 64
2019-08-21 09:00:00 14.2 14 Norte 19 Norte 0 -- -- 71
2019-08-21 08:00:00 13.8 15 Norte 21 Norte 0 -- -- 74
2019-08-21 07:00:00 13.7 14 Norte 22 Norte 0 -- -- 74
2019-08-21 06:00:00 14 14 Norte 26 Norte 0 -- -- 73
2019-08-21 05:00:00 14.1 14 Norte 22 Norte 0 -- -- 72
2019-08-21 04:00:00 14.5 15 Nordeste 31 Nordeste 0 -- -- 70
2019-08-21 03:00:00 14.8 22 Nordeste 36 Nordeste 0 -- -- 69
2019-08-21 02:00:00 15.4 24 Nordeste 41 Nordeste 0 -- -- 67
2019-08-21 01:00:00 16 24 Nordeste 45 Nordeste 0 -- -- 64
2019-08-21 00:00:00 16.9 23 Nordeste 37 Nordeste 0 -- -- 60
2019-08-20 23:00:00 18.2 23 Nordeste 40 Nordeste 0 -- -- 54
2019-08-20 22:00:00 19.4 21 Nordeste 34 Nordeste 0 -- -- 47
2019-08-20 21:00:00 21.4 18 Nordeste 34 Nordeste 0 -- -- 41
2019-08-20 20:00:00 24.1 24 Nordeste 40 Nordeste 0 -- -- 35
2019-08-20 19:00:00 25.5 23 Nordeste 40 Nordeste 0 -- -- 35
2019-08-20 18:00:00 26.4 24 Nordeste 48 Nordeste 0 -- -- 33
2019-08-20 17:00:00 26.2 24 Nordeste 42 Nordeste 0 -- -- 34
2019-08-20 16:00:00 25.7 26 Nordeste 46 Este 0 -- -- 36
2019-08-20 15:00:00 24.8 27 Nordeste 44 Nordeste 0 -- -- 40
2019-08-20 14:00:00 24.5 27 Nordeste 50 Nordeste 0 -- -- 42
2019-08-20 13:00:00 23 28 Nordeste 53 Nordeste 0 -- -- 45
2019-08-20 12:00:00 21.9 28 Nordeste 44 Nordeste 0 -- -- 46
2019-08-20 11:00:00 19.7 28 Nordeste 46 Nordeste 0 -- -- 51
2019-08-20 10:00:00 17.7 28 Nordeste 53 Nordeste 0 -- -- 59
2019-08-20 09:00:00 15.4 22 Nordeste 35 Nordeste 0 -- -- 69
2019-08-20 08:00:00 11.6 15 Norte 21 Norte 0 -- -- 80
2019-08-20 07:00:00 12.5 11 Norte 18 Norte 0 -- -- 77
2019-08-20 06:00:00 13.5 15 Norte 28 Nordeste 0 -- -- 75
2019-08-20 05:00:00 14.6 21 Nordeste 35 Nordeste 0 -- -- 72
2019-08-20 04:00:00 15 22 Nordeste 35 Nordeste 0 -- -- 70
2019-08-20 03:00:00 15.3 26 Nordeste 39 Nordeste 0 -- -- 68
2019-08-20 02:00:00 15.8 27 Nordeste 49 Nordeste 0 -- -- 66
2019-08-20 01:00:00 16 24 Nordeste 49 Nordeste 0 -- -- 66
2019-08-20 00:00:00 16.5 29 Nordeste 48 Nordeste 0 -- -- 65
2019-08-19 23:00:00 17.1 31 Nordeste 48 Nordeste 0 -- -- 65
2019-08-19 22:00:00 18.5 33 Nordeste 45 Nordeste 0 -- -- 60
2019-08-19 21:00:00 20.3 31 Este 41 Este 0 -- -- 53
2019-08-19 20:00:00 22.3 28 Nordeste 38 Este 0 -- -- 48
2019-08-19 19:00:00 23.6 27 Este 39 Nordeste 0 -- -- 45
2019-08-19 18:00:00 25.5 19 Este 30 Este 0 -- -- 40
2019-08-19 17:00:00 26.5 7 Este 23 Nordeste 0 -- -- 38
2019-08-19 16:00:00 25.9 12 Nordeste 26 Nordeste 0 -- -- 40
2019-08-19 15:00:00 25.5 14 Nordeste 33 Norte 0 -- -- 40
2019-08-19 14:00:00 24 17 Nordeste 35 Este 0 -- -- 44
2019-08-19 13:00:00 22.7 18 Nordeste 31 Nordeste 0 -- -- 50
2019-08-19 12:00:00 21.3 22 Nordeste 32 Nordeste 0 -- -- 53
2019-08-19 11:00:00 19.3 20 Nordeste 33 Nordeste 0 -- -- 58
2019-08-19 10:00:00 17.3 23 Nordeste 33 Nordeste 0 -- -- 64
2019-08-19 09:00:00 15.1 19 Norte 26 Norte 0 -- -- 72
2019-08-19 08:00:00 14 12 Norte 25 Norte 0 -- -- 77
2019-08-19 07:00:00 14.3 16 Norte 23 Norte 0 -- -- 74
2019-08-19 06:00:00 14.2 15 Norte 21 Nordeste 0 -- -- 75
2019-08-19 05:00:00 14.1 10 Norte 17 Nordeste 0 -- -- 76
2019-08-19 04:00:00 14.5 11 Norte 19 Norte 0 -- -- 77
2019-08-19 03:00:00 15.4 11 Nordeste 29 Nordeste 0 -- -- 73
2019-08-19 02:00:00 16.2 15 Nordeste 26 Nordeste 0 -- -- 71
2019-08-19 01:00:00 17 19 Norte 30 Norte 0 -- -- 62
2019-08-19 00:00:00 17.8 20 Norte 31 Norte 0 -- -- 62
2019-08-18 23:00:00 19.5 22 Norte 33 Noroeste 0 -- -- 58
2019-08-18 22:00:00 21.9 18 Norte 28 Norte 0 -- -- 49
2019-08-18 21:00:00 25.6 18 Noroeste 28 Noroeste 0 -- -- 39
2019-08-18 20:00:00 26.5 9 Noroeste 22 Noroeste 0 -- -- 44
2019-08-18 19:00:00 27.5 20 Oeste 43 Oeste 0 -- -- 46
2019-08-18 18:00:00 28 26 Sudoeste 37 Oeste 0 -- -- 42
2019-08-18 17:00:00 27 25 Oeste 40 Oeste 0 -- -- 46
2019-08-18 16:00:00 27.6 26 Sudoeste 42 Oeste 0 -- -- 47
2019-08-18 15:00:00 27.6 23 Sudoeste 37 Oeste 0 -- -- 47
2019-08-18 14:00:00 26.6 17 Sudoeste 30 Sudoeste 0 -- -- 49
2019-08-18 13:00:00 24.1 14 Sudoeste 24 Sudoeste 0 -- -- 53
2019-08-18 12:00:00 21.8 14 Sudoeste 27 Sudoeste 0 -- -- 59
2019-08-18 11:00:00 20.3 16 Sudoeste 22 Sudoeste 0 -- -- 64
2019-08-18 10:00:00 18.8 13 Sudoeste 23 Sudoeste 0 -- -- 70
2019-08-18 09:00:00 17.3 12 Sudoeste 19 Sudoeste 0 -- -- 76
2019-08-18 08:00:00 15.2 8 Sudoeste 18 Sudoeste 0 -- -- 80
2019-08-18 07:00:00 15.2 9 Sur 19 Sur 0 -- -- 75
2019-08-18 06:00:00 15.8 11 Sur 16 Sudoeste 0 -- -- 71
2019-08-18 05:00:00 16.2 9 Sudoeste 16 Sudoeste 0 -- -- 70
2019-08-18 04:00:00 17 9 Sur 13 Sur 0 -- -- 65
2019-08-18 03:00:00 15.8 7 Sur 12 Sur 0 -- -- 65
2019-08-18 02:00:00 18.4 3 Sur 5 Nordeste 0 -- -- 57
2019-08-18 01:00:00 20.6 4 Sudoeste 9 Sudoeste 0 -- -- 51
2019-08-18 00:00:00 20.2 2 Noroeste 12 Noroeste 0 -- -- 46
2019-08-17 23:00:00 22 12 Noroeste 16 Noroeste 0 -- -- 43
2019-08-17 22:00:00 25.4 10 Oeste 19 Oeste 0 -- -- 35
2019-08-17 21:00:00 30.1 16 Sudoeste 33 Sudoeste 0 -- -- 28
2019-08-17 20:00:00 32.1 22 Sudoeste 38 Oeste 0 -- -- 24
2019-08-17 19:00:00 33.3 22 Sudoeste 39 Sudoeste 0 -- -- 23
2019-08-17 18:00:00 33.9 19 Oeste 41 Oeste 0 -- -- 22
2019-08-17 17:00:00 34 19 Oeste 49 Sudoeste 0 -- -- 23
2019-08-17 16:00:00 33.4 13 Sudoeste 29 Sudoeste 0 -- -- 24
2019-08-17 15:00:00 31.5 5 Sudoeste 21 Sudoeste 0 -- -- 28
2019-08-17 14:00:00 29.7 9 Sudoeste 19 Sur 0 -- -- 30
2019-08-17 13:00:00 27.9 4 Sudoeste 14 Este 0 -- -- 35
2019-08-17 12:00:00 26 6 Este 14 Este 0 -- -- 38
2019-08-17 11:00:00 23.5 6 Nordeste 13 Nordeste 0 -- -- 50
2019-08-17 10:00:00 19.2 4 Noroeste 10 Oeste 0 -- -- 58
2019-08-17 09:00:00 16.2 0 Calma 7 Este 0 -- -- 63
2019-08-17 08:00:00 11.1 5 Este 8 Sudeste 0 -- -- 73
2019-08-17 07:00:00 11.8 5 Norte 8 Norte 0 -- -- 72
2019-08-17 06:00:00 12.7 3 Oeste 8 Sudoeste 0 -- -- 69
2019-08-17 05:00:00 13.2 4 Sudoeste 7 Sur 0 -- -- 66
2019-08-17 04:00:00 14.2 0 Calma 5 Sur 0 -- -- 61
2019-08-17 03:00:00 16.6 4 Sudoeste 12 Oeste 0 -- -- 57
2019-08-17 02:00:00 19 10 Oeste 15 Noroeste 0 -- -- 52
2019-08-17 01:00:00 20 8 Oeste 13 Noroeste 0 -- -- 47
2019-08-17 00:00:00 20.8 9 Noroeste 16 Noroeste 0 -- -- 46
2019-08-16 23:00:00 22.6 12 Noroeste 17 Oeste 0 -- -- 40
2019-08-16 22:00:00 26.2 14 Oeste 27 Oeste 0 -- -- 30
2019-08-16 21:00:00 30.1 19 Oeste 35 Sudoeste 0 -- -- 25
2019-08-16 20:00:00 32.6 18 Sudoeste 30 Sudoeste 0 -- -- 24
2019-08-16 19:00:00 33.5 16 Sudoeste 32 Noroeste 0 -- -- 23
2019-08-16 18:00:00 34.1 17 Oeste 29 Oeste 0 -- -- 19
2019-08-16 17:00:00 33.6 14 Oeste 32 Oeste 0 -- -- 23
2019-08-16 16:00:00 32.4 13 Oeste 26 Sudoeste 0 -- -- 24
2019-08-16 15:00:00 30.8 12 Sudoeste 22 Sudoeste 0 -- -- 30
2019-08-16 14:00:00 29.3 6 Oeste 20 Oeste 0 -- -- 38
2019-08-16 13:00:00 27.7 5 Sur 12 Noroeste 0 -- -- 40
2019-08-16 12:00:00 25.7 8 Norte 14 Norte 0 -- -- 42
2019-08-16 11:00:00 23.4 8 Norte 16 Norte 0 -- -- 48
2019-08-16 10:00:00 20.9 9 Nordeste 17 Norte 0 -- -- 55
2019-08-16 09:00:00 17.3 14 Noroeste 18 Noroeste 0 -- -- 73
2019-08-16 08:00:00 14.3 11 Noroeste 15 Noroeste 0 -- -- 84
2019-08-16 07:00:00 14.2 9 Noroeste 18 Noroeste 0 -- -- 80
2019-08-16 06:00:00 14.8 9 Norte 17 Norte 0 -- -- 76
2019-08-16 05:00:00 15.8 13 Norte 17 Norte 0 -- -- 72
2019-08-16 04:00:00 16.4 11 Norte 15 Norte 0 -- -- 69
2019-08-16 03:00:00 18.1 13 Norte 19 Nordeste 0 -- -- 63
2019-08-16 02:00:00 19.9 17 Nordeste 24 Nordeste 0 -- -- 58
2019-08-16 01:00:00 21.1 17 Nordeste 34 Nordeste 0 -- -- 57
2019-08-16 00:00:00 22.7 19 Nordeste 33 Nordeste 0 -- -- 52
2019-08-15 23:00:00 25.8 21 Norte 32 Norte 0 -- -- 43
2019-08-15 22:00:00 26.6 10 Este 14 Este 0 -- -- 36
2019-08-15 21:00:00 28.6 6 Este 14 Este 0 -- -- 33
2019-08-15 20:00:00 29.4 9 Sudeste 23 Sudeste 0 -- -- 31
2019-08-15 19:00:00 31.3 8 Sur 25 Sudeste 0 -- -- 29
2019-08-15 18:00:00 31.4 9 Sur 15 Sur 0 -- -- 31
2019-08-15 17:00:00 31.2 7 Sudoeste 18 Sudoeste 0 -- -- 31
2019-08-15 16:00:00 30 9 Sur 13 Sudoeste 0 -- -- 34
2019-08-15 15:00:00 29 8 Oeste 18 Nordeste 0 -- -- 36
2019-08-15 14:00:00 28.9 7 Nordeste 19 Nordeste 0 -- -- 35
2019-08-15 13:00:00 26.9 7 Norte 17 Nordeste 0 -- -- 40
2019-08-15 12:00:00 24.9 6 Este 28 Nordeste 0 -- -- 46
2019-08-15 11:00:00 23.2 8 Este 18 Nordeste 0 -- -- 56
2019-08-15 10:00:00 21.3 13 Este 24 Nordeste 0 -- -- 64
2019-08-15 09:00:00 18.8 15 Nordeste 21 Nordeste 0 -- -- 75
2019-08-15 08:00:00 14.4 9 Nordeste 12 Nordeste 0 -- -- 89
2019-08-15 07:00:00 14.1 10 Norte 14 Norte 0 -- -- 83
2019-08-15 06:00:00 15.2 11 Norte 13 Norte 0 -- -- 80
2019-08-15 05:00:00 15.9 8 Norte 15 Norte 0 -- -- 76
2019-08-15 04:00:00 18.5 13 Norte 19 Norte 0 -- -- 70
2019-08-15 03:00:00 18.7 12 Norte 17 Norte 0 -- -- 71
2019-08-15 02:00:00 19.8 9 Norte 24 Noroeste 0 -- -- 65
2019-08-15 01:00:00 20.8 18 Norte 26 Norte 0 -- -- 64
2019-08-15 00:00:00 21.9 16 Noroeste 26 Noroeste 0 -- -- 59
2019-08-14 23:00:00 23.8 19 Noroeste 30 Norte 0 -- -- 53
2019-08-14 22:00:00 25.6 15 Noroeste 29 Norte 0 -- -- 49
2019-08-14 21:00:00 28.4 17 Norte 24 Norte 0 -- -- 40
2019-08-14 20:00:00 29.7 17 Noroeste 22 Noroeste 0 -- -- 34
2019-08-14 19:00:00 32.6 6 Norte 17 Nordeste 0 -- -- 28
2019-08-14 18:00:00 32.1 6 Nordeste 21 Sur 0 -- -- 28
2019-08-14 17:00:00 31.1 9 Sudoeste 21 Sudoeste 0 -- -- 29
2019-08-14 16:00:00 30.9 6 Norte 16 Sudoeste 0 -- -- 29
2019-08-14 15:00:00 29.5 6 Norte 17 Norte 0 -- -- 31
2019-08-14 14:00:00 27.3 6 Noroeste 18 Sudoeste 0 -- -- 33
2019-08-14 13:00:00 25.7 0 Calma 13 Sur 0 -- -- 35
2019-08-14 12:00:00 23.5 4 Oeste 14 Noroeste 0 -- -- 41
2019-08-14 11:00:00 21.3 6 Norte 15 Norte 0 -- -- 50
2019-08-14 10:00:00 18.1 9 Norte 20 Norte 0 -- -- 59
2019-08-14 09:00:00 14.7 10 Noroeste 15 Noroeste 0 -- -- 69
2019-08-14 08:00:00 11.1 11 Noroeste 16 Noroeste 0 -- -- 83
2019-08-14 07:00:00 10.8 8 Noroeste 14 Noroeste 0 -- -- 80
2019-08-14 06:00:00 11.1 9 Noroeste 14 Noroeste 0 -- -- 75
2019-08-14 05:00:00 12 6 Norte 14 Norte 0 -- -- 68
2019-08-14 04:00:00 12.3 11 Norte 13 Norte 0 -- -- 64
2019-08-14 03:00:00 13.7 9 Este 15 Nordeste 0 -- -- 53
2019-08-14 02:00:00 13.7 8 Noroeste 20 Noroeste 0 -- -- 54
2019-08-14 01:00:00 14.8 5 Norte 13 Oeste 0 -- -- 44
2019-08-14 00:00:00 15.8 6 Oeste 13 Oeste 0 -- -- 41
2019-08-13 23:00:00 16.9 9 Este 13 Sudeste 0 -- -- 37
2019-08-13 22:00:00 19.5 11 Sudeste 19 Este 0 -- -- 34
2019-08-13 21:00:00 24.8 9 Este 14 Este 0 -- -- 27
2019-08-13 20:00:00 26.7 8 Sudeste 13 Sur 0 -- -- 24
2019-08-13 19:00:00 27.3 5 Sur 17 Norte 0 -- -- 24
2019-08-13 18:00:00 27 10 Norte 24 Norte 0 -- -- 23
2019-08-13 17:00:00 26.2 8 Sudoeste 19 Oeste 0 -- -- 25
2019-08-13 16:00:00 25.8 5 Norte 18 Este 0 -- -- 28
2019-08-13 15:00:00 24.1 6 Sur 16 Nordeste 0 -- -- 32
2019-08-13 14:00:00 23.6 8 Sudeste 19 Este 0 -- -- 36
2019-08-13 13:00:00 22.2 9 Nordeste 22 Nordeste 0 -- -- 38
2019-08-13 12:00:00 20.7 11 Nordeste 23 Nordeste 0 -- -- 42
2019-08-13 11:00:00 18.3 15 Nordeste 23 Nordeste 0 -- -- 48
2019-08-13 10:00:00 15.7 16 Nordeste 27 Norte 0 -- -- 59
2019-08-13 09:00:00 12.5 15 Norte 21 Norte 0 -- -- 74
2019-08-13 08:00:00 9.1 12 Norte 20 Norte 0 -- -- 83
2019-08-13 07:00:00 9.1 14 Norte 19 Norte 0 -- -- 82
2019-08-13 06:00:00 9.4 12 Norte 15 Norte 0 -- -- 79
2019-08-13 05:00:00 10.6 11 Norte 20 Nordeste 0 -- -- 74
2019-08-13 04:00:00 11.4 10 Nordeste 18 Nordeste 0 -- -- 71
2019-08-13 03:00:00 12.8 15 Nordeste 33 Este 0 -- -- 68
2019-08-13 02:00:00 13.5 25 Nordeste 40 Nordeste 0 -- -- 65
2019-08-13 01:00:00 14.7 34 Nordeste 48 Nordeste 0 -- -- 58
2019-08-13 00:00:00 15.9 30 Nordeste 50 Nordeste 0 -- -- 55
2019-08-12 23:00:00 17.3 25 Nordeste 39 Nordeste 0 -- -- 50
2019-08-12 22:00:00 16.5 13 Norte 19 Norte 0 -- -- 44
2019-08-12 21:00:00 21.5 10 Norte 15 Norte 0 -- -- 32
2019-08-12 20:00:00 21.7 11 Norte 20 Norte 0 -- -- 31
2019-08-12 19:00:00 22.6 14 Norte 26 Norte 0 -- -- 29
2019-08-12 18:00:00 23.6 14 Norte 28 Norte 0 -- -- 29
2019-08-12 17:00:00 23 12 Noroeste 33 Noroeste 0 -- -- 30
2019-08-12 16:00:00 24.1 15 Nordeste 29 Norte 0 -- -- 27
2019-08-12 15:00:00 23.1 17 Norte 48 Norte 0 -- -- 31
2019-08-12 14:00:00 21.6 19 Noroeste 33 Norte 0 -- -- 32
2019-08-12 13:00:00 20.5 17 Norte 33 Norte 0 -- -- 35
2019-08-12 12:00:00 19.6 16 Norte 31 Norte 0 -- -- 42
2019-08-12 11:00:00 17.4 19 Norte 31 Norte 0 -- -- 49
2019-08-12 10:00:00 14.6 18 Norte 25 Norte 0 -- -- 62
2019-08-12 09:00:00 11.3 13 Norte 18 Norte 0 -- -- 76
2019-08-12 08:00:00 7.5 9 Norte 14 Norte 0 -- -- 89
2019-08-12 07:00:00 8.3 10 Norte 15 Norte 0 -- -- 85
2019-08-12 06:00:00 8.4 8 Norte 15 Norte 0 -- -- 83
2019-08-12 05:00:00 8.8 10 Norte 15 Noroeste 0 -- -- 82
2019-08-12 04:00:00 9.4 13 Norte 15 Norte 0 -- -- 81
2019-08-12 03:00:00 9.1 12 Noroeste 13 Noroeste 0 -- -- 81
2019-08-12 02:00:00 10 11 Noroeste 15 Noroeste 0 -- -- 75
2019-08-12 01:00:00 12 6 Noroeste 16 Noroeste 0 -- -- 68
2019-08-12 00:00:00 13.8 15 Noroeste 28 Noroeste 0 -- -- 62
2019-08-11 23:00:00 14.9 18 Noroeste 28 Noroeste 0 -- -- 57
2019-08-11 22:00:00 16.1 19 Noroeste 34 Noroeste 0 -- -- 50
2019-08-11 21:00:00 18.2 23 Noroeste 51 Noroeste 0 -- -- 47
2019-08-11 20:00:00 20.4 29 Noroeste 44 Noroeste 0 -- -- 41
2019-08-11 19:00:00 22.4 25 Noroeste 42 Noroeste 0 -- -- 32
2019-08-11 18:00:00 24.5 17 Sudoeste 32 Sudoeste 0 -- -- 29
2019-08-11 17:00:00 24.9 15 Oeste 34 Sudoeste 0 -- -- 26
2019-08-11 16:00:00 23.6 14 Sudoeste 30 Sudoeste 0 -- -- 30
2019-08-11 15:00:00 21.8 14 Sudoeste 25 Oeste 0 -- -- 41
2019-08-11 14:00:00 21 13 Sudoeste 22 Sudoeste 0 -- -- 47
2019-08-11 13:00:00 20.4 9 Sudoeste 16 Sudoeste 0 -- -- 57
2019-08-11 12:00:00 17.9 6 Sur 15 Sur 0 -- -- 68
2019-08-11 11:00:00 16.7 2 Norte 11 Norte 0 -- -- 73
2019-08-11 10:00:00 15.2 8 Norte 13 Norte 0 -- -- 79
2019-08-11 09:00:00 14 8 Oeste 16 Oeste 0 -- -- 88
2019-08-11 08:00:00 12.8 8 Oeste 18 Este 0 -- -- 90
2019-08-11 07:00:00 12.8 13 Nordeste 23 Este 0 -- -- 89
2019-08-11 06:00:00 13.3 19 Este 24 Este 0 -- -- 87
2019-08-11 05:00:00 14.2 13 Nordeste 24 Este 0.4 -- -- 86
2019-08-11 04:00:00 15 10 Nordeste 15 Norte 0.8 -- -- 85
2019-08-11 03:00:00 16.8 9 Norte 22 Este 0.2 -- -- 76
2019-08-11 02:00:00 18.3 14 Norte 24 Noroeste 0 -- -- 60
2019-08-11 01:00:00 18.7 14 Noroeste 25 Norte 0 -- -- 51
2019-08-11 00:00:00 18.6 14 Norte 24 Noroeste 0 -- -- 52
2019-08-10 23:00:00 18.9 11 Noroeste 22 Oeste 0 -- -- 49
2019-08-10 22:00:00 21 17 Oeste 33 Oeste 0 -- -- 41
2019-08-10 21:00:00 23.7 20 Sudoeste 34 Oeste 0 -- -- 34
2019-08-10 20:00:00 25.4 18 Oeste 33 Sudoeste 0 -- -- 28
2019-08-10 19:00:00 26.3 16 Sudoeste 28 Sudoeste 0 -- -- 24
2019-08-10 18:00:00 26.2 16 Sudoeste 27 Sudoeste 0 -- -- 28
2019-08-10 17:00:00 26.3 8 Sudoeste 27 Sudoeste 0 -- -- 29
2019-08-10 16:00:00 25.7 10 Sur 22 Sudoeste 0 -- -- 29
2019-08-10 15:00:00 24.7 11 Sur 23 Sur 0 -- -- 32
2019-08-10 14:00:00 23.2 10 Sudoeste 19 Sudoeste 0 -- -- 36
2019-08-10 13:00:00 22.3 6 Sudeste 17 Sur 0 -- -- 41
2019-08-10 12:00:00 21.5 6 Norte 13 Este 0 -- -- 42
2019-08-10 11:00:00 19.5 4 Sur 12 Norte 0 -- -- 57
2019-08-10 10:00:00 17.4 4 Noroeste 15 Oeste 0 -- -- 65
2019-08-10 09:00:00 15.8 9 Sudoeste 14 Sudoeste 0 -- -- 73
2019-08-10 08:00:00 15.3 9 Sudoeste 21 Sudoeste 0 -- -- 74
2019-08-10 07:00:00 15.4 6 Sur 10 Sudoeste 0 -- -- 73
2019-08-10 06:00:00 15.6 3 Oeste 15 Sudoeste 0 -- -- 72
2019-08-10 05:00:00 15.8 5 Sudoeste 10 Sur 0 -- -- 71
2019-08-10 04:00:00 16 6 Sudoeste 14 Sudoeste 0 -- -- 69
2019-08-10 03:00:00 16.1 5 Oeste 10 Sudoeste 0 -- -- 68
2019-08-10 02:00:00 16.3 8 Oeste 14 Oeste 0 -- -- 66
2019-08-10 01:00:00 16 8 Sudoeste 14 Oeste 0 -- -- 65
2019-08-10 00:00:00 16.9 12 Oeste 21 Oeste 0 -- -- 63
2019-08-09 23:00:00 18.3 15 Oeste 33 Oeste 0 -- -- 58
2019-08-09 22:00:00 20.1 19 Oeste 28 Oeste 0 -- -- 53
2019-08-09 21:00:00 22.2 21 Oeste 37 Oeste 0 -- -- 45
2019-08-09 20:00:00 23.3 21 Oeste 40 Sudoeste 0 -- -- 41
2019-08-09 19:00:00 25 24 Sudoeste 40 Oeste 0 -- -- 39
2019-08-09 18:00:00 25.6 27 Oeste 53 Oeste 0 -- -- 36
2019-08-09 17:00:00 26.1 31 Sudoeste 51 Sudoeste 0 -- -- 35
2019-08-09 16:00:00 25.5 27 Sudoeste 47 Oeste 0 -- -- 37
2019-08-09 15:00:00 25.1 28 Sudoeste 45 Oeste 0 -- -- 39
2019-08-09 14:00:00 24.1 30 Sudoeste 45 Oeste 0 -- -- 41
2019-08-09 13:00:00 22.5 27 Sudoeste 44 Sudoeste 0 -- -- 51
2019-08-09 12:00:00 20.7 25 Sudoeste 42 Sudoeste 0 -- -- 58
2019-08-09 11:00:00 19.1 25 Sudoeste 42 Sudoeste 0.2 -- -- 72
2019-08-09 10:00:00 17.4 21 Sudoeste 48 Sudoeste 0 -- -- 85
2019-08-09 09:00:00 17.4 28 Oeste 44 Oeste 0.2 -- -- 86
2019-08-09 08:00:00 20.4 23 Sudoeste 37 Sur 0 -- -- 81
2019-08-09 07:00:00 20.4 19 Sur 32 Sur 0 -- -- 77
2019-08-09 06:00:00 20.7 15 Sur 26 Sur 0 -- -- 74
2019-08-09 05:00:00 21.1 14 Sur 28 Sur 0 -- -- 71
2019-08-09 04:00:00 21.1 13 Sur 20 Sur 0 -- -- 70
2019-08-09 03:00:00 20.8 9 Sudoeste 19 Sudoeste 0 -- -- 69
2019-08-09 02:00:00 20.8 7 Sur 16 Sur 0 -- -- 67
2019-08-09 01:00:00 22 7 Sur 22 Sudoeste 0 -- -- 63
2019-08-09 00:00:00 23.7 16 Sudoeste 27 Sudoeste 0 -- -- 58
2019-08-08 23:00:00 23.4 17 Sudoeste 26 Sudoeste 0 -- -- 58
2019-08-08 22:00:00 24.7 13 Sudoeste 33 Sudoeste 0 -- -- 55
2019-08-08 21:00:00 26.6 24 Sudoeste 40 Sudoeste 0 -- -- 51
2019-08-08 20:00:00 27.7 28 Sudoeste 58 Sudoeste 0 -- -- 47
2019-08-08 19:00:00 29.1 30 Sudoeste 57 Sudoeste 0 -- -- 45
2019-08-08 18:00:00 29.6 29 Sudoeste 46 Sudoeste 0 -- -- 44
2019-08-08 17:00:00 28.6 28 Sudoeste 42 Sudoeste 0 -- -- 47
2019-08-08 16:00:00 27.2 18 Sudoeste 33 Sudoeste 0 -- -- 54
2019-08-08 15:00:00 26.8 19 Sudoeste 40 Sudoeste 0 -- -- 56
2019-08-08 14:00:00 26.5 19 Sudoeste 31 Sudoeste 0 -- -- 61
2019-08-08 13:00:00 23.6 14 Sudoeste 28 Sudoeste 0 -- -- 71
2019-08-08 12:00:00 22.9 18 Sudoeste 26 Sudoeste 0 -- -- 78
2019-08-08 11:00:00 19.8 12 Sur 19 Sur 0 -- -- 88
2019-08-08 10:00:00 17.8 11 Sur 22 Sur 0.6 -- -- 93
2019-08-08 09:00:00 18.4 16 Sur 24 Sur 0 -- -- 86
2019-08-08 08:00:00 18 8 Sur 31 Sur 0 -- -- 86
2019-08-08 07:00:00 19 8 Sur 21 Sudoeste 0 -- -- 79
2019-08-08 06:00:00 19.1 4 Este 12 Sur 0 -- -- 85
2019-08-08 05:00:00 19 7 Sur 14 Sudeste 0 -- -- 85
2019-08-08 04:00:00 18.8 8 Sur 10 Sur 0 -- -- 88
2019-08-08 03:00:00 18.9 3 Sudeste 10 Sudeste 0 -- -- 89
2019-08-08 02:00:00 18.6 8 Sudeste 11 Sudeste 0 -- -- 90
2019-08-08 01:00:00 18.5 7 Sudeste 8 Sudeste 0 -- -- 89
2019-08-08 00:00:00 18.3 4 Sur 9 Sudeste 0 -- -- 88
2019-08-07 23:00:00 18.8 0 Calma 5 Oeste 0 -- -- 87
2019-08-07 22:00:00 18.8 2 Oeste 15 Noroeste 0 -- -- 85
2019-08-07 21:00:00 19.1 11 Noroeste 22 Oeste 0 -- -- 85
2019-08-07 20:00:00 18.8 18 Oeste 29 Oeste 0.8 -- -- 88
2019-08-07 19:00:00 19.4 23 Oeste 38 Sudoeste 0.6 -- -- 83
2019-08-07 18:00:00 22.9 28 Sudoeste 44 Sudoeste 0 -- -- 58
2019-08-07 17:00:00 25.4 19 Oeste 34 Oeste 0 -- -- 46
2019-08-07 16:00:00 25.2 15 Oeste 36 Oeste 0 -- -- 43
2019-08-07 15:00:00 25.2 19 Sudoeste 54 Sudoeste 0 -- -- 40
2019-08-07 14:00:00 25.9 14 Sudoeste 30 Sudoeste 0 -- -- 42
2019-08-07 13:00:00 24.1 10 Sudoeste 21 Sudoeste 0 -- -- 52
2019-08-07 12:00:00 24.3 8 Sur 17 Sur 0 -- -- 49
2019-08-07 11:00:00 22.4 4 Sur 8 Sudoeste 0 -- -- 52
2019-08-07 10:00:00 21.7 4 Sur 6 Sur 0 -- -- 53
2019-08-07 09:00:00 19.6 0 Calma 4 Sur 0 -- -- 65
2019-08-07 08:00:00 16.6 0 Calma 3 Norte 0 -- -- 74
2019-08-07 07:00:00 15.7 0 Calma 6 Sudeste 0 -- -- 75
2019-08-07 06:00:00 15.8 0 Calma 5 Oeste 0 -- -- 72
2019-08-07 05:00:00 17.3 5 Oeste 8 Noroeste 0 -- -- 69
2019-08-07 04:00:00 19.1 4 Oeste 5 Oeste 0 -- -- 65
2019-08-07 03:00:00 20.1 3 Este 8 Noroeste 0 -- -- 62
2019-08-07 02:00:00 20.5 7 Norte 17 Norte 0 -- -- 62
2019-08-07 01:00:00 21 13 Norte 24 Norte 0 -- -- 60
2019-08-07 00:00:00 21.6 15 Norte 22 Noroeste 0 -- -- 60
2019-08-06 23:00:00 22.6 14 Noroeste 23 Norte 0 -- -- 55
2019-08-06 22:00:00 23.6 11 Norte 21 Norte 0 -- -- 52
2019-08-06 21:00:00 25.8 17 Noroeste 31 Oeste 0 -- -- 41
2019-08-06 20:00:00 27.2 26 Oeste 42 Oeste 0 -- -- 36
2019-08-06 19:00:00 29.2 23 Oeste 36 Oeste 0 -- -- 32
2019-08-06 18:00:00 30.5 22 Oeste 32 Sudoeste 0 -- -- 28
2019-08-06 17:00:00 30.9 14 Sudoeste 30 Oeste 0 -- -- 28
2019-08-06 16:00:00 30.8 10 Sudoeste 28 Oeste 0 -- -- 29
2019-08-06 15:00:00 30 4 Oeste 23 Sudeste 0 -- -- 35
2019-08-06 14:00:00 28.4 6 Sudoeste 19 Sudoeste 0 -- -- 36
2019-08-06 13:00:00 27.3 6 Sur 13 Oeste 0 -- -- 43
2019-08-06 12:00:00 25.2 4 Noroeste 12 Nordeste 0 -- -- 48
2019-08-06 11:00:00 23.5 4 Norte 11 Nordeste 0 -- -- 51
2019-08-06 10:00:00 21.2 5 Norte 12 Este 0 -- -- 54
2019-08-06 09:00:00 18.6 9 Nordeste 14 Nordeste 0 -- -- 60
2019-08-06 08:00:00 15 6 Norte 9 Norte 0 -- -- 79
2019-08-06 07:00:00 14.9 0 Calma 8 Norte 0 -- -- 75
2019-08-06 06:00:00 16.1 8 Norte 12 Nordeste 0 -- -- 75
2019-08-06 05:00:00 17 6 Norte 8 Norte 0 -- -- 71
2019-08-06 04:00:00 18.1 0 Calma 11 Noroeste 0 -- -- 71
2019-08-06 03:00:00 18.8 9 Norte 15 Norte 0 -- -- 67
2019-08-06 02:00:00 20.1 10 Norte 16 Norte 0 -- -- 63
2019-08-06 01:00:00 21.3 5 Noroeste 17 Noroeste 0 -- -- 56
2019-08-06 00:00:00 22.1 13 Noroeste 17 Noroeste 0 -- -- 48
2019-08-05 23:00:00 24 10 Oeste 17 Oeste 0 -- -- 40
2019-08-05 22:00:00 27.6 13 Sudoeste 26 Oeste 0 -- -- 34
2019-08-05 21:00:00 30.4 17 Oeste 26 Sudoeste 0 -- -- 29
2019-08-05 20:00:00 31.9 16 Sudoeste 28 Sudoeste 0 -- -- 26
2019-08-05 19:00:00 32.9 18 Sudoeste 31 Oeste 0 -- -- 26
2019-08-05 18:00:00 32.9 5 Sudeste 23 Sudoeste 0 -- -- 28
2019-08-05 17:00:00 32.3 7 Sur 21 Sudoeste 0 -- -- 30
2019-08-05 16:00:00 31.5 11 Sur 35 Sur 0 -- -- 30
2019-08-05 15:00:00 30.5 7 Sudeste 17 Oeste 0 -- -- 37
2019-08-05 14:00:00 28.6 5 Sudoeste 22 Noroeste 0 -- -- 41
2019-08-05 13:00:00 27.1 8 Noroeste 19 Noroeste 0 -- -- 46
2019-08-05 12:00:00 25.5 10 Norte 19 Nordeste 0 -- -- 51
2019-08-05 11:00:00 23.3 10 Norte 17 Norte 0 -- -- 57
2019-08-05 10:00:00 21.4 10 Nordeste 17 Nordeste 0 -- -- 63
2019-08-05 09:00:00 18.6 11 Norte 14 Norte 0 -- -- 73
2019-08-05 08:00:00 15.2 10 Norte 14 Norte 0 -- -- 86
2019-08-05 07:00:00 14.4 11 Norte 15 Noroeste 0 -- -- 85
2019-08-05 06:00:00 15.6 8 Norte 9 Norte 0 -- -- 80
2019-08-05 05:00:00 16.9 6 Norte 17 Nordeste 0 -- -- 77
2019-08-05 04:00:00 17.6 9 Nordeste 19 Nordeste 0 -- -- 75
2019-08-05 03:00:00 18.5 12 Nordeste 18 Nordeste 0 -- -- 72
2019-08-05 02:00:00 19.1 10 Noroeste 18 Norte 0 -- -- 62
2019-08-05 01:00:00 21.3 15 Norte 22 Norte 0 -- -- 55
2019-08-05 00:00:00 21.3 11 Norte 17 Norte 0 -- -- 54
2019-08-04 23:00:00 22.2 10 Noroeste 17 Noroeste 0 -- -- 46
2019-08-04 22:00:00 25.6 10 Oeste 19 Oeste 0 -- -- 37
2019-08-04 21:00:00 29.9 18 Oeste 33 Oeste 0 -- -- 28
2019-08-04 20:00:00 31.8 19 Oeste 32 Sudoeste 0 -- -- 25
2019-08-04 19:00:00 32.5 17 Sudoeste 35 Oeste 0 -- -- 23
2019-08-04 18:00:00 32.9 21 Oeste 38 Sudoeste 0 -- -- 24
2019-08-04 17:00:00 32.8 17 Sudoeste 34 Oeste 0 -- -- 26
2019-08-04 16:00:00 32.1 16 Sur 35 Sudoeste 0 -- -- 30
2019-08-04 15:00:00 31.5 12 Sur 26 Sur 0 -- -- 32
2019-08-04 14:00:00 30.1 8 Sudoeste 23 Sur 0 -- -- 37
2019-08-04 13:00:00 28.7 6 Sur 17 Oeste 0 -- -- 41
2019-08-04 12:00:00 26.9 4 Noroeste 10 Noroeste 0 -- -- 46
2019-08-04 11:00:00 24.7 2 Noroeste 9 Oeste 0 -- -- 52
2019-08-04 10:00:00 22.6 3 Noroeste 9 Noroeste 0 -- -- 56
2019-08-04 09:00:00 18.6 5 Noroeste 7 Noroeste 0 -- -- 75
2019-08-04 08:00:00 15.2 5 Norte 6 Norte 0 -- -- 83
2019-08-04 07:00:00 15.6 3 Norte 6 Norte 0 -- -- 79
2019-08-04 06:00:00 16.6 3 Noroeste 6 Oeste 0 -- -- 75
2019-08-04 05:00:00 17.3 2 Sudoeste 11 Noroeste 0 -- -- 74
2019-08-04 04:00:00 18 5 Noroeste 15 Noroeste 0 -- -- 72
2019-08-04 03:00:00 18.7 12 Noroeste 17 Noroeste 0 -- -- 70
2019-08-04 02:00:00 19.5 9 Noroeste 14 Noroeste 0 -- -- 61
2019-08-04 01:00:00 20.3 12 Noroeste 15 Noroeste 0 -- -- 55
2019-08-04 00:00:00 22 10 Noroeste 18 Noroeste 0 -- -- 48
2019-08-03 23:00:00 23.9 11 Noroeste 22 Noroeste 0 -- -- 39
2019-08-03 22:00:00 27 11 Oeste 26 Oeste 0 -- -- 31
2019-08-03 21:00:00 31.4 22 Oeste 33 Oeste 0 -- -- 26
2019-08-03 20:00:00 33.2 21 Oeste 28 Oeste 0 -- -- 25
2019-08-03 19:00:00 33.7 12 Sudoeste 24 Oeste 0 -- -- 24
2019-08-03 18:00:00 34.5 7 Sudoeste 19 Sudoeste 0 -- -- 24
2019-08-03 17:00:00 33.9 10 Sur 24 Sudoeste 0 -- -- 23
2019-08-03 16:00:00 33.7 12 Noroeste 23 Sur 0 -- -- 22
2019-08-03 15:00:00 32.5 9 Noroeste 17 Sudoeste 0 -- -- 27
2019-08-03 14:00:00 32.1 3 Norte 12 Noroeste 0 -- -- 30
2019-08-03 13:00:00 30 8 Norte 17 Norte 0 -- -- 34
2019-08-03 12:00:00 27.9 7 Norte 17 Noroeste 0 -- -- 37
2019-08-03 11:00:00 26 8 Nordeste 19 Norte 0 -- -- 40
2019-08-03 10:00:00 23.2 12 Norte 16 Norte 0 -- -- 45
2019-08-03 09:00:00 18.8 13 Norte 19 Norte 0 -- -- 65
2019-08-03 08:00:00 15.4 13 Noroeste 21 Noroeste 0 -- -- 81
2019-08-03 07:00:00 15.3 12 Norte 16 Noroeste 0 -- -- 79
2019-08-03 06:00:00 15.7 11 Noroeste 19 Norte 0 -- -- 75
2019-08-03 05:00:00 16 11 Norte 14 Norte 0 -- -- 71
2019-08-03 04:00:00 17.4 13 Norte 18 Norte 0 -- -- 67
2019-08-03 03:00:00 18.8 13 Norte 19 Norte 0 -- -- 63
2019-08-03 02:00:00 21.1 15 Norte 26 Noroeste 0 -- -- 56
2019-08-03 01:00:00 21.1 13 Noroeste 24 Este 0 -- -- 49
2019-08-03 00:00:00 20.2 5 Norte 15 Sudeste 0 -- -- 44
2019-08-02 23:00:00 22.8 3 Nordeste 12 Nordeste 0 -- -- 37
2019-08-02 22:00:00 26.4 10 Nordeste 13 Nordeste 0.2 -- -- 31
2019-08-02 21:00:00 31.1 8 Nordeste 10 Nordeste 0 -- -- 25
2019-08-02 20:00:00 32.6 0 Calma 17 Norte 0 -- -- 23
2019-08-02 19:00:00 32.7 3 Este 24 Sudoeste 0 -- -- 24
2019-08-02 18:00:00 32.7 4 Sudoeste 21 Norte 0 -- -- 24
2019-08-02 17:00:00 32.8 9 Noroeste 18 Oeste 0 -- -- 24
2019-08-02 16:00:00 31.6 6 Sudeste 13 Sudeste 0 -- -- 26
2019-08-02 15:00:00 30.9 6 Nordeste 17 Este 0 -- -- 31
2019-08-02 14:00:00 29.3 5 Este 19 Este 0 -- -- 35
2019-08-02 13:00:00 26.8 9 Nordeste 21 Nordeste 0 -- -- 41
2019-08-02 12:00:00 24 13 Nordeste 23 Nordeste 0 -- -- 50
2019-08-02 11:00:00 21.6 14 Nordeste 24 Nordeste 0 -- -- 56
2019-08-02 10:00:00 19.1 17 Nordeste 27 Nordeste 0 -- -- 64
2019-08-02 09:00:00 16.8 13 Norte 21 Norte 0 -- -- 74
2019-08-02 08:00:00 12.8 8 Norte 12 Norte 0 -- -- 88
2019-08-02 07:00:00 12.2 10 Norte 12 Norte 0 -- -- 87
2019-08-02 06:00:00 13.4 9 Norte 13 Norte 0 -- -- 82
2019-08-02 05:00:00 15.1 10 Norte 25 Nordeste 0 -- -- 78
2019-08-02 04:00:00 15.5 13 Nordeste 19 Nordeste 0 -- -- 77
2019-08-02 03:00:00 16.3 14 Nordeste 27 Nordeste 0 -- -- 74
2019-08-02 02:00:00 17.2 16 Nordeste 30 Nordeste 0 -- -- 71
2019-08-02 01:00:00 18.3 21 Nordeste 36 Nordeste 0 -- -- 67
2019-08-02 00:00:00 20.2 22 Nordeste 36 Este 0 -- -- 65
2019-08-01 23:00:00 20.8 15 Noroeste 28 Nordeste 0 -- -- 38
2019-08-01 22:00:00 25 12 Oeste 17 Oeste 0 -- -- 30
2019-08-01 21:00:00 29.2 13 Oeste 27 Oeste 0 -- -- 24
2019-08-01 20:00:00 30.8 9 Oeste 24 Sudoeste 0 -- -- 22
2019-08-01 19:00:00 31.4 14 Sudoeste 28 Sudoeste 0 -- -- 22
2019-08-01 18:00:00 31.2 6 Sur 22 Sudoeste 0 -- -- 27
2019-08-01 17:00:00 30.8 11 Sudoeste 21 Sudoeste 0 -- -- 27
2019-08-01 16:00:00 30.4 7 Sur 18 Oeste 0 -- -- 29
2019-08-01 15:00:00 29 7 Sur 23 Oeste 0 -- -- 32
2019-08-01 14:00:00 27.7 8 Oeste 18 Noroeste 0 -- -- 37
2019-08-01 13:00:00 26 6 Norte 20 Norte 0 -- -- 45
2019-08-01 12:00:00 23.6 8 Norte 17 Norte 0 -- -- 53
2019-08-01 11:00:00 22.1 10 Nordeste 17 Norte 0 -- -- 56
2019-08-01 10:00:00 20 11 Nordeste 21 Nordeste 0 -- -- 61
2019-08-01 09:00:00 17.4 12 Norte 18 Norte 0 -- -- 70
2019-08-01 08:00:00 12.5 9 Norte 13 Norte 0 -- -- 85
2019-08-01 07:00:00 12.7 11 Norte 17 Norte 0 -- -- 82
2019-08-01 06:00:00 13 12 Norte 13 Norte 0 -- -- 81
2019-08-01 05:00:00 14.2 10 Norte 16 Norte 0 -- -- 76
2019-08-01 04:00:00 15.5 10 Norte 17 Norte 0 -- -- 71
2019-08-01 03:00:00 17.7 12 Norte 24 Norte 0 -- -- 65
2019-08-01 02:00:00 18.7 10 Nordeste 27 Nordeste 0 -- -- 62
2019-08-01 01:00:00 19.9 14 Nordeste 33 Nordeste 0 -- -- 58
2019-08-01 00:00:00 20.7 22 Nordeste 38 Nordeste 0 -- -- 55
2019-07-31 23:00:00 21.5 18 Nordeste 26 Nordeste 0 -- -- 49
2019-07-31 22:00:00 22.3 12 Norte 18 Noroeste 0 -- -- 41
2019-07-31 21:00:00 24.3 16 Noroeste 24 Noroeste 0 -- -- 39
2019-07-31 20:00:00 26.6 15 Norte 24 Norte 0 -- -- 32
2019-07-31 19:00:00 27.4 13 Norte 22 Norte 0 -- -- 30
2019-07-31 18:00:00 28 15 Norte 28 Norte 0 -- -- 30
2019-07-31 17:00:00 27.6 14 Norte 22 Norte 0 -- -- 32
2019-07-31 16:00:00 27.9 8 Nordeste 26 Este 0 -- -- 32
2019-07-31 15:00:00 26.6 14 Nordeste 34 Norte 0 -- -- 33
2019-07-31 14:00:00 24.3 17 Norte 27 Nordeste 0 -- -- 37
2019-07-31 13:00:00 22.4 16 Nordeste 27 Nordeste 0 -- -- 42
2019-07-31 12:00:00 20.8 19 Nordeste 30 Norte 0 -- -- 46
2019-07-31 11:00:00 19.1 19 Nordeste 28 Nordeste 0 -- -- 53
2019-07-31 10:00:00 16.5 19 Nordeste 28 Nordeste 0 -- -- 61
2019-07-31 09:00:00 14.2 19 Norte 26 Norte 0 -- -- 70
2019-07-31 08:00:00 11.6 11 Norte 25 Norte 0 -- -- 80
2019-07-31 07:00:00 11.6 16 Norte 21 Norte 0 -- -- 80
2019-07-31 06:00:00 12.3 16 Norte 24 Nordeste 0 -- -- 76
2019-07-31 05:00:00 12.8 16 Nordeste 29 Nordeste 0 -- -- 75
2019-07-31 04:00:00 13.1 18 Nordeste 34 Nordeste 0 -- -- 74
2019-07-31 03:00:00 13.5 22 Nordeste 36 Nordeste 0 -- -- 71
2019-07-31 02:00:00 14.3 19 Nordeste 41 Nordeste 0 -- -- 66
2019-07-31 01:00:00 15.4 22 Nordeste 43 Nordeste 0 -- -- 62
2019-07-31 00:00:00 16.9 26 Nordeste 40 Nordeste 0 -- -- 57
2019-07-30 23:00:00 16.4 12 Norte 18 Norte 0 -- -- 41
2019-07-30 22:00:00 18.8 13 Norte 18 Norte 0 -- -- 31
2019-07-30 21:00:00 23.8 10 Norte 21 Noroeste 0 -- -- 25
2019-07-30 20:00:00 25.3 10 Noroeste 23 Noroeste 0 -- -- 22
2019-07-30 19:00:00 25.8 14 Noroeste 24 Norte 0 -- -- 23
2019-07-30 18:00:00 26.2 10 Noroeste 27 Norte 0 -- -- 25
2019-07-30 17:00:00 26 11 Norte 25 Norte 0 -- -- 27
2019-07-30 16:00:00 25.4 15 Norte 28 Norte 0 -- -- 29
2019-07-30 15:00:00 24.2 9 Este 22 Nordeste 0 -- -- 32
2019-07-30 14:00:00 22.6 13 Noroeste 21 Nordeste 0 -- -- 37
2019-07-30 13:00:00 21.7 10 Norte 27 Norte 0 -- -- 40
2019-07-30 12:00:00 20.3 16 Norte 31 Norte 0 -- -- 45
2019-07-30 11:00:00 18.4 18 Norte 34 Noroeste 0 -- -- 49
2019-07-30 10:00:00 16 25 Norte 42 Norte 0 -- -- 54
2019-07-30 09:00:00 13.6 24 Noroeste 37 Noroeste 0 -- -- 63
2019-07-30 08:00:00 10.1 6 Noroeste 14 Noroeste 0 -- -- 78
2019-07-30 07:00:00 9.9 5 Noroeste 14 Noroeste 0 -- -- 74
2019-07-30 06:00:00 11 10 Noroeste 26 Noroeste 0 -- -- 70
2019-07-30 05:00:00 12 18 Noroeste 36 Noroeste 0 -- -- 66
2019-07-30 04:00:00 12.1 14 Noroeste 23 Norte 0 -- -- 66
2019-07-30 03:00:00 12 11 Noroeste 24 Noroeste 0 -- -- 70
2019-07-30 02:00:00 12.4 9 Noroeste 17 Noroeste 0 -- -- 70
2019-07-30 01:00:00 13.4 10 Noroeste 22 Noroeste 0 -- -- 66
2019-07-30 00:00:00 14.6 8 Noroeste 23 Oeste 0 -- -- 54
2019-07-29 23:00:00 17.6 19 Oeste 30 Oeste 0 -- -- 45
2019-07-29 22:00:00 19.7 23 Oeste 35 Oeste 0 -- -- 41
2019-07-29 21:00:00 22.3 23 Sudoeste 35 Sudoeste 0 -- -- 37
2019-07-29 20:00:00 24.1 24 Sudoeste 43 Sudoeste 0 -- -- 33
2019-07-29 19:00:00 25 25 Sudoeste 49 Sudoeste 0 -- -- 30
2019-07-29 18:00:00 25.4 28 Sudoeste 47 Sudoeste 0 -- -- 31
2019-07-29 17:00:00 25.8 27 Oeste 50 Sudoeste 0 -- -- 29
2019-07-29 16:00:00 25.8 27 Sudoeste 45 Sudoeste 0 -- -- 29
2019-07-29 15:00:00 25.3 25 Sudoeste 47 Sudoeste 0 -- -- 30
2019-07-29 14:00:00 24.1 24 Sudoeste 42 Sudoeste 0 -- -- 34
2019-07-29 13:00:00 22.8 24 Sudoeste 39 Oeste 0 -- -- 41
2019-07-29 12:00:00 21.5 22 Sudoeste 39 Sudoeste 0 -- -- 51
2019-07-29 11:00:00 20.4 25 Sudoeste 38 Sudoeste 0 -- -- 55
2019-07-29 10:00:00 18.7 26 Sudoeste 40 Sudoeste 0 -- -- 58
2019-07-29 09:00:00 16.4 18 Sudoeste 27 Sudoeste 0 -- -- 51
2019-07-29 08:00:00 12.8 7 Sur 17 Sur 0 -- -- 59
2019-07-29 07:00:00 13.3 7 Sur 13 Sur 0 -- -- 58
2019-07-29 06:00:00 13.4 8 Sudoeste 12 Sudoeste 0 -- -- 58
2019-07-29 05:00:00 14.3 8 Sur 23 Sur 0 -- -- 57
2019-07-29 04:00:00 15.5 15 Sur 22 Sur 0 -- -- 58
2019-07-29 03:00:00 17.6 20 Sudoeste 26 Sudoeste 0 -- -- 55
2019-07-29 02:00:00 15.8 2 Sur 9 Oeste 0 -- -- 58
2019-07-29 01:00:00 16.8 5 Sudoeste 10 Oeste 0 -- -- 48
2019-07-29 00:00:00 18.1 2 Sur 13 Oeste 0 -- -- 41
2019-07-28 23:00:00 19.8 12 Oeste 17 Oeste 0 -- -- 35
2019-07-28 22:00:00 23.9 12 Oeste 18 Sudoeste 0 -- -- 29
2019-07-28 21:00:00 26.9 15 Oeste 23 Sudoeste 0 -- -- 24
2019-07-28 20:00:00 27.8 10 Sudoeste 22 Sudoeste 0 -- -- 25
2019-07-28 19:00:00 27.4 12 Sudoeste 31 Sudoeste 0 -- -- 28
2019-07-28 18:00:00 27.2 8 Sudoeste 23 Sudoeste 0 -- -- 28
2019-07-28 17:00:00 26.6 8 Oeste 19 Oeste 0 -- -- 29
2019-07-28 16:00:00 25 9 Sudoeste 22 Oeste 0 -- -- 33
2019-07-28 15:00:00 24.3 8 Sudeste 18 Sudoeste 0 -- -- 38
2019-07-28 14:00:00 22.1 6 Sudoeste 14 Sudoeste 0 -- -- 44
2019-07-28 13:00:00 21.7 5 Este 20 Sudeste 0 -- -- 45
2019-07-28 12:00:00 21 11 Este 20 Nordeste 0 -- -- 49
2019-07-28 11:00:00 19.3 10 Este 19 Este 0 -- -- 54
2019-07-28 10:00:00 17.1 9 Este 13 Este 0 -- -- 63
2019-07-28 09:00:00 14.2 4 Norte 8 Norte 0 -- -- 76
2019-07-28 08:00:00 10.2 6 Noroeste 8 Noroeste 0 -- -- 90
2019-07-28 07:00:00 9.7 6 Norte 7 Norte 0 -- -- 89
2019-07-28 06:00:00 10 5 Norte 9 Norte 0 -- -- 87
2019-07-28 05:00:00 10.7 7 Norte 10 Nordeste 0 -- -- 84
2019-07-28 04:00:00 11.8 10 Nordeste 12 Nordeste 0 -- -- 82
2019-07-28 03:00:00 12.5 11 Nordeste 15 Nordeste 0 -- -- 80
2019-07-28 02:00:00 13.5 11 Este 18 Nordeste 0 -- -- 76
2019-07-28 01:00:00 14.7 12 Nordeste 22 Nordeste 0 -- -- 74
2019-07-28 00:00:00 15.8 15 Nordeste 27 Nordeste 0 -- -- 72
2019-07-27 23:00:00 17.6 17 Nordeste 32 Nordeste 0 -- -- 66
2019-07-26 12:00:00 -- -- -- -- -- -- -- -- --
2019-07-26 11:00:00 20.4 11 Noroeste 19 Noroeste 0 -- -- 50
2019-07-26 10:00:00 18.3 15 Noroeste 23 Noroeste 0 -- -- 57
2019-07-26 09:00:00 15.7 5 Sudoeste 11 Oeste 0 -- -- 80
2019-07-26 08:00:00 15.2 8 Sudoeste 12 Oeste 0 -- -- 81
2019-07-26 07:00:00 16.5 6 Sudoeste 14 Oeste 0 -- -- 79
2019-07-26 06:00:00 17.2 9 Sudoeste 19 Sudoeste 0 -- -- 76
2019-07-26 05:00:00 17.7 12 Sudoeste 16 Sudoeste 0 -- -- 72
2019-07-26 04:00:00 18.4 4 Oeste 13 Norte 0.2 -- -- 78
2019-07-26 03:00:00 18.8 9 Norte 14 Norte 0.4 -- -- 80
2019-07-26 02:00:00 20.1 12 Oeste 20 Sudoeste 0 -- -- 71
2019-07-26 01:00:00 21 12 Sudoeste 24 Oeste 0 -- -- 67
2019-07-26 00:00:00 22 14 Oeste 33 Oeste 0 -- -- 62